sensor_id;sensor_type;location;lat;lon;timestamp;pressure;altitude;pressure_sealevel;temperature;humidity
66801;BME280;53703;50.326;19.122;2023-05-23T00:01:08;98472.45;;;17.99;50.73
66801;BME280;53703;50.326;19.122;2023-05-23T00:04:03;98463.59;;;17.98;50.80
66801;BME280;53703;50.326;19.122;2023-05-23T00:06:58;98462.33;;;17.98;50.61
66801;BME280;53703;50.326;19.122;2023-05-23T00:09:52;98465.71;;;17.98;50.52
66801;BME280;53703;50.326;19.122;2023-05-23T00:12:46;98464.73;;;17.97;50.66
66801;BME280;53703;50.326;19.122;2023-05-23T00:15:40;98458.28;;;17.94;50.52
66801;BME280;53703;50.326;19.122;2023-05-23T00:18:34;98458.34;;;17.93;50.73
66801;BME280;53703;50.326;19.122;2023-05-23T00:21:27;98453.91;;;17.93;50.62
66801;BME280;53703;50.326;19.122;2023-05-23T00:24:22;98453.34;;;17.92;50.55
66801;BME280;53703;50.326;19.122;2023-05-23T00:27:16;98452.23;;;17.89;50.52
66801;BME280;53703;50.326;19.122;2023-05-23T00:30:12;98446.58;;;17.87;50.71
66801;BME280;53703;50.326;19.122;2023-05-23T00:33:06;98443.31;;;17.89;50.52
66801;BME280;53703;50.326;19.122;2023-05-23T00:36:01;98447.30;;;17.88;50.58
66801;BME280;53703;50.326;19.122;2023-05-23T00:38:55;98448.14;;;17.87;50.46
66801;BME280;53703;50.326;19.122;2023-05-23T00:41:50;98448.09;;;17.85;50.58
66801;BME280;53703;50.326;19.122;2023-05-23T00:44:47;98444.13;;;17.85;50.54
66801;BME280;53703;50.326;19.122;2023-05-23T00:47:42;98443.88;;;17.83;50.59
66801;BME280;53703;50.326;19.122;2023-05-23T00:50:37;98443.20;;;17.82;50.59
66801;BME280;53703;50.326;19.122;2023-05-23T00:53:31;98445.23;;;17.81;50.47
66801;BME280;53703;50.326;19.122;2023-05-23T00:56:26;98443.50;;;17.78;50.46
66801;BME280;53703;50.326;19.122;2023-05-23T00:59:21;98446.77;;;17.76;50.50
66801;BME280;53703;50.326;19.122;2023-05-23T01:02:15;98448.16;;;17.79;50.40
66801;BME280;53703;50.326;19.122;2023-05-23T01:05:12;98445.67;;;17.76;50.35
66801;BME280;53703;50.326;19.122;2023-05-23T01:08:06;98443.27;;;17.75;50.43
66801;BME280;53703;50.326;19.122;2023-05-23T01:11:04;98442.61;;;17.71;50.42
66801;BME280;53703;50.326;19.122;2023-05-23T01:14:10;98442.91;;;17.71;50.50
66801;BME280;53703;50.326;19.122;2023-05-23T01:17:12;98441.67;;;17.69;50.57
66801;BME280;53703;50.326;19.122;2023-05-23T01:20:11;98439.80;;;17.70;50.52
66801;BME280;53703;50.326;19.122;2023-05-23T01:23:44;98438.09;;;17.67;50.51
66801;BME280;53703;50.326;19.122;2023-05-23T01:27:06;98433.95;;;17.66;50.30
66801;BME280;53703;50.326;19.122;2023-05-23T01:30:02;98434.34;;;17.66;50.19
66801;BME280;53703;50.326;19.122;2023-05-23T01:32:59;98432.42;;;17.68;50.35
66801;BME280;53703;50.326;19.122;2023-05-23T01:35:55;98428.36;;;17.81;50.30
66801;BME280;53703;50.326;19.122;2023-05-23T01:38:51;98429.98;;;17.77;50.26
66801;BME280;53703;50.326;19.122;2023-05-23T01:41:44;98428.49;;;17.71;50.17
66801;BME280;53703;50.326;19.122;2023-05-23T01:44:39;98430.42;;;17.72;50.15
66801;BME280;53703;50.326;19.122;2023-05-23T01:47:34;98429.72;;;17.67;50.18
66801;BME280;53703;50.326;19.122;2023-05-23T01:50:29;98423.94;;;17.66;50.39
66801;BME280;53703;50.326;19.122;2023-05-23T01:53:26;98428.20;;;17.63;50.28
66801;BME280;53703;50.326;19.122;2023-05-23T01:56:22;98431.27;;;17.61;50.29
66801;BME280;53703;50.326;19.122;2023-05-23T01:59:16;98429.04;;;17.57;50.38
66801;BME280;53703;50.326;19.122;2023-05-23T02:02:11;98424.92;;;17.56;50.32
66801;BME280;53703;50.326;19.122;2023-05-23T02:05:08;98421.71;;;17.54;50.50
66801;BME280;53703;50.326;19.122;2023-05-23T02:08:01;98424.63;;;17.59;50.36
66801;BME280;53703;50.326;19.122;2023-05-23T02:10:56;98423.15;;;17.54;50.34
66801;BME280;53703;50.326;19.122;2023-05-23T02:13:50;98422.01;;;17.52;50.45
66801;BME280;53703;50.326;19.122;2023-05-23T02:16:44;98420.89;;;17.52;50.20
66801;BME280;53703;50.326;19.122;2023-05-23T02:19:38;98423.08;;;17.51;50.33
66801;BME280;53703;50.326;19.122;2023-05-23T02:22:32;98428.13;;;17.52;50.20
66801;BME280;53703;50.326;19.122;2023-05-23T02:25:26;98427.02;;;17.48;50.27
66801;BME280;53703;50.326;19.122;2023-05-23T02:28:20;98424.88;;;17.48;50.24
66801;BME280;53703;50.326;19.122;2023-05-23T02:31:14;98426.91;;;17.47;50.13
66801;BME280;53703;50.326;19.122;2023-05-23T02:34:08;98428.71;;;17.44;50.22
66801;BME280;53703;50.326;19.122;2023-05-23T02:37:03;98424.59;;;17.43;50.20
66801;BME280;53703;50.326;19.122;2023-05-23T02:39:57;98418.77;;;17.44;50.02
66801;BME280;53703;50.326;19.122;2023-05-23T02:45:40;98424.96;;;17.42;49.99
66801;BME280;53703;50.326;19.122;2023-05-23T02:48:37;98419.00;;;17.38;50.12
66801;BME280;53703;50.326;19.122;2023-05-23T02:51:34;98417.51;;;17.38;49.89
66801;BME280;53703;50.326;19.122;2023-05-23T02:54:29;98418.50;;;17.37;49.89
66801;BME280;53703;50.326;19.122;2023-05-23T02:57:23;98416.79;;;17.38;49.87
66801;BME280;53703;50.326;19.122;2023-05-23T03:00:18;98412.21;;;17.35;49.94
66801;BME280;53703;50.326;19.122;2023-05-23T03:03:13;98407.41;;;17.35;49.98
66801;BME280;53703;50.326;19.122;2023-05-23T03:06:09;98407.17;;;17.35;49.84
66801;BME280;53703;50.326;19.122;2023-05-23T03:09:06;98410.48;;;17.29;50.03
66801;BME280;53703;50.326;19.122;2023-05-23T03:12:00;98404.48;;;17.29;50.01
66801;BME280;53703;50.326;19.122;2023-05-23T03:14:54;98406.92;;;17.29;50.04
66801;BME280;53703;50.326;19.122;2023-05-23T03:17:48;98400.98;;;17.28;50.00
66801;BME280;53703;50.326;19.122;2023-05-23T03:20:42;98400.63;;;17.26;50.21
66801;BME280;53703;50.326;19.122;2023-05-23T03:23:36;98399.32;;;17.27;50.04
66801;BME280;53703;50.326;19.122;2023-05-23T03:26:30;98397.77;;;17.28;49.99
66801;BME280;53703;50.326;19.122;2023-05-23T03:29:25;98398.54;;;17.27;50.16
66801;BME280;53703;50.326;19.122;2023-05-23T03:35:40;98392.75;;;17.26;50.25
66801;BME280;53703;50.326;19.122;2023-05-23T03:38:36;98392.98;;;17.26;50.23
66801;BME280;53703;50.326;19.122;2023-05-23T03:41:29;98395.37;;;17.26;50.32
66801;BME280;53703;50.326;19.122;2023-05-23T03:44:23;98396.63;;;17.27;50.19
66801;BME280;53703;50.326;19.122;2023-05-23T03:47:18;98396.21;;;17.26;50.40
66801;BME280;53703;50.326;19.122;2023-05-23T03:50:13;98395.66;;;17.26;50.33
66801;BME280;53703;50.326;19.122;2023-05-23T03:53:07;98392.88;;;17.31;50.37
66801;BME280;53703;50.326;19.122;2023-05-23T03:56:01;98390.77;;;17.29;50.40
66801;BME280;53703;50.326;19.122;2023-05-23T03:58:55;98395.85;;;17.30;50.49
66801;BME280;53703;50.326;19.122;2023-05-23T04:01:49;98395.44;;;17.30;50.54
66801;BME280;53703;50.326;19.122;2023-05-23T04:04:43;98391.67;;;17.30;50.58
66801;BME280;53703;50.326;19.122;2023-05-23T04:07:39;98385.90;;;17.33;50.51
66801;BME280;53703;50.326;19.122;2023-05-23T04:10:33;98388.17;;;17.35;50.51
66801;BME280;53703;50.326;19.122;2023-05-23T04:13:27;98387.55;;;17.35;50.51
66801;BME280;53703;50.326;19.122;2023-05-23T04:16:22;98387.98;;;17.31;50.48
66801;BME280;53703;50.326;19.122;2023-05-23T04:19:17;98391.13;;;17.33;50.49
66801;BME280;53703;50.326;19.122;2023-05-23T04:22:11;98391.33;;;17.38;50.32
66801;BME280;53703;50.326;19.122;2023-05-23T04:25:07;98394.17;;;17.38;50.27
66801;BME280;53703;50.326;19.122;2023-05-23T04:28:02;98390.45;;;17.37;50.24
66801;BME280;53703;50.326;19.122;2023-05-23T04:30:56;98392.44;;;17.41;50.09
66801;BME280;53703;50.326;19.122;2023-05-23T04:33:51;98392.84;;;17.44;50.13
66801;BME280;53703;50.326;19.122;2023-05-23T04:36:45;98387.90;;;17.42;50.21
66801;BME280;53703;50.326;19.122;2023-05-23T04:39:40;98383.94;;;17.41;50.17
66801;BME280;53703;50.326;19.122;2023-05-23T04:42:35;98381.56;;;17.41;50.12
66801;BME280;53703;50.326;19.122;2023-05-23T04:45:29;98378.92;;;17.42;50.39
66801;BME280;53703;50.326;19.122;2023-05-23T04:48:23;98377.70;;;17.44;50.25
66801;BME280;53703;50.326;19.122;2023-05-23T04:51:19;98376.25;;;17.45;50.31
66801;BME280;53703;50.326;19.122;2023-05-23T04:54:13;98373.91;;;17.50;50.14
66801;BME280;53703;50.326;19.122;2023-05-23T04:57:11;98375.73;;;17.50;50.24
66801;BME280;53703;50.326;19.122;2023-05-23T05:00:09;98373.56;;;17.48;50.43
66801;BME280;53703;50.326;19.122;2023-05-23T05:03:07;98371.41;;;17.60;50.29
66801;BME280;53703;50.326;19.122;2023-05-23T05:06:04;98365.75;;;17.79;49.96
66801;BME280;53703;50.326;19.122;2023-05-23T05:08:58;98363.13;;;17.65;50.51
66801;BME280;53703;50.326;19.122;2023-05-23T05:11:52;98360.42;;;17.77;50.05
66801;BME280;53703;50.326;19.122;2023-05-23T05:14:46;98360.86;;;17.88;50.03
66801;BME280;53703;50.326;19.122;2023-05-23T05:17:40;98360.90;;;17.68;50.70
66801;BME280;53703;50.326;19.122;2023-05-23T05:20:34;98362.21;;;17.89;50.14
66801;BME280;53703;50.326;19.122;2023-05-23T05:23:29;98362.16;;;18.05;49.89
66801;BME280;53703;50.326;19.122;2023-05-23T05:26:24;98363.90;;;18.28;49.72
66801;BME280;53703;50.326;19.122;2023-05-23T05:29:19;98361.66;;;18.17;50.48
66801;BME280;53703;50.326;19.122;2023-05-23T05:32:13;98361.85;;;18.18;50.50
66801;BME280;53703;50.326;19.122;2023-05-23T05:35:08;98359.69;;;17.85;51.38
66801;BME280;53703;50.326;19.122;2023-05-23T05:38:05;98357.48;;;17.70;51.40
66801;BME280;53703;50.326;19.122;2023-05-23T05:40:59;98356.11;;;17.59;51.86
66801;BME280;53703;50.326;19.122;2023-05-23T05:43:53;98360.05;;;17.50;52.47
66801;BME280;53703;50.326;19.122;2023-05-23T05:46:47;98354.02;;;17.66;52.18
66801;BME280;53703;50.326;19.122;2023-05-23T05:49:41;98356.25;;;17.68;52.43
66801;BME280;53703;50.326;19.122;2023-05-23T05:52:35;98361.04;;;17.86;51.71
66801;BME280;53703;50.326;19.122;2023-05-23T05:55:31;98359.33;;;18.14;50.52
66801;BME280;53703;50.326;19.122;2023-05-23T05:58:25;98353.47;;;18.31;49.41
66801;BME280;53703;50.326;19.122;2023-05-23T06:01:19;98350.59;;;18.33;49.21
66801;BME280;53703;50.326;19.122;2023-05-23T06:04:13;98350.41;;;18.31;48.92
66801;BME280;53703;50.326;19.122;2023-05-23T06:07:07;98345.77;;;18.32;49.22
66801;BME280;53703;50.326;19.122;2023-05-23T06:10:01;98341.86;;;18.38;48.58
66801;BME280;53703;50.326;19.122;2023-05-23T06:12:55;98340.43;;;18.37;48.46
66801;BME280;53703;50.326;19.122;2023-05-23T06:15:49;98338.50;;;18.39;48.36
66801;BME280;53703;50.326;19.122;2023-05-23T06:18:43;98338.44;;;18.46;48.07
66801;BME280;53703;50.326;19.122;2023-05-23T06:21:37;98333.52;;;18.46;48.18
66801;BME280;53703;50.326;19.122;2023-05-23T06:24:31;98334.35;;;18.47;48.16
66801;BME280;53703;50.326;19.122;2023-05-23T06:27:25;98335.03;;;18.50;48.30
66801;BME280;53703;50.326;19.122;2023-05-23T06:30:19;98337.09;;;18.54;48.15
66801;BME280;53703;50.326;19.122;2023-05-23T06:33:14;98332.30;;;18.52;48.49
66801;BME280;53703;50.326;19.122;2023-05-23T06:36:09;98328.08;;;18.57;48.19
66801;BME280;53703;50.326;19.122;2023-05-23T06:39:03;98327.98;;;18.53;48.40
66801;BME280;53703;50.326;19.122;2023-05-23T06:41:57;98330.98;;;18.52;48.55
66801;BME280;53703;50.326;19.122;2023-05-23T06:44:50;98334.00;;;18.57;48.62
66801;BME280;53703;50.326;19.122;2023-05-23T06:47:44;98331.55;;;18.56;48.48
66801;BME280;53703;50.326;19.122;2023-05-23T06:50:45;98328.15;;;18.56;48.77
66801;BME280;53703;50.326;19.122;2023-05-23T06:53:18;98331.02;;;18.58;48.66
66801;BME280;53703;50.326;19.122;2023-05-23T06:56:01;98320.27;;;18.61;48.85
66801;BME280;53703;50.326;19.122;2023-05-23T06:58:55;98321.12;;;18.64;48.97
66801;BME280;53703;50.326;19.122;2023-05-23T07:01:49;98316.28;;;18.63;48.94
66801;BME280;53703;50.326;19.122;2023-05-23T07:04:42;98314.61;;;18.58;48.75
66801;BME280;53703;50.326;19.122;2023-05-23T07:07:37;98314.89;;;18.61;48.99
66801;BME280;53703;50.326;19.122;2023-05-23T07:10:31;98314.73;;;18.61;49.21
66801;BME280;53703;50.326;19.122;2023-05-23T07:13:26;98310.66;;;18.66;49.45
66801;BME280;53703;50.326;19.122;2023-05-23T07:16:20;98310.69;;;18.64;49.32
66801;BME280;53703;50.326;19.122;2023-05-23T07:19:14;98309.44;;;18.68;49.03
66801;BME280;53703;50.326;19.122;2023-05-23T07:22:08;98308.81;;;18.65;49.27
66801;BME280;53703;50.326;19.122;2023-05-23T07:25:02;98303.52;;;18.64;49.11
66801;BME280;53703;50.326;19.122;2023-05-23T07:27:56;98302.48;;;18.64;49.22
66801;BME280;53703;50.326;19.122;2023-05-23T07:30:50;98299.23;;;18.64;48.88
66801;BME280;53703;50.326;19.122;2023-05-23T07:33:44;98297.80;;;18.66;49.23
66801;BME280;53703;50.326;19.122;2023-05-23T07:36:38;98295.64;;;18.65;49.13
66801;BME280;53703;50.326;19.122;2023-05-23T07:39:32;98294.77;;;18.69;49.05
66801;BME280;53703;50.326;19.122;2023-05-23T07:42:26;98289.05;;;18.67;49.20
66801;BME280;53703;50.326;19.122;2023-05-23T07:45:20;98295.91;;;18.66;49.73
66801;BME280;53703;50.326;19.122;2023-05-23T07:48:14;98292.25;;;18.69;49.91
66801;BME280;53703;50.326;19.122;2023-05-23T07:51:08;98300.79;;;18.59;50.40
66801;BME280;53703;50.326;19.122;2023-05-23T07:54:02;98294.62;;;18.61;50.50
66801;BME280;53703;50.326;19.122;2023-05-23T07:56:56;98293.70;;;18.59;50.40
66801;BME280;53703;50.326;19.122;2023-05-23T07:59:49;98287.27;;;18.80;50.26
66801;BME280;53703;50.326;19.122;2023-05-23T08:02:23;98281.37;;;18.86;49.88
66801;BME280;53703;50.326;19.122;2023-05-23T08:05:17;98280.52;;;18.91;51.06
66801;BME280;53703;50.326;19.122;2023-05-23T08:08:14;98277.82;;;18.86;52.11
66801;BME280;53703;50.326;19.122;2023-05-23T08:11:08;98280.55;;;18.80;56.76
66801;BME280;53703;50.326;19.122;2023-05-23T08:14:02;98274.13;;;18.79;55.66
66801;BME280;53703;50.326;19.122;2023-05-23T08:16:56;98273.21;;;18.77;54.84
66801;BME280;53703;50.326;19.122;2023-05-23T08:19:50;98271.86;;;18.72;54.29
66801;BME280;53703;50.326;19.122;2023-05-23T08:22:44;98269.59;;;18.61;53.00
66801;BME280;53703;50.326;19.122;2023-05-23T08:25:38;98272.80;;;18.68;52.50
66801;BME280;53703;50.326;19.122;2023-05-23T08:28:32;98276.27;;;18.72;52.38
66801;BME280;53703;50.326;19.122;2023-05-23T08:31:27;98275.92;;;18.67;52.33
66801;BME280;53703;50.326;19.122;2023-05-23T08:34:21;98276.95;;;18.78;51.69
66801;BME280;53703;50.326;19.122;2023-05-23T08:37:14;98270.80;;;18.74;51.68
66801;BME280;53703;50.326;19.122;2023-05-23T08:40:16;98273.20;;;18.72;52.02
66801;BME280;53703;50.326;19.122;2023-05-23T08:43:11;98267.17;;;18.71;51.85
66801;BME280;53703;50.326;19.122;2023-05-23T08:46:06;98266.78;;;18.91;51.27
66801;BME280;53703;50.326;19.122;2023-05-23T08:49:00;98265.07;;;18.92;51.33
66801;BME280;53703;50.326;19.122;2023-05-23T08:51:58;98261.37;;;18.73;51.95
66801;BME280;53703;50.326;19.122;2023-05-23T08:54:54;98259.71;;;18.78;51.63
66801;BME280;53703;50.326;19.122;2023-05-23T08:57:48;98260.15;;;18.79;51.64
66801;BME280;53703;50.326;19.122;2023-05-23T09:00:42;98257.08;;;18.75;51.89
66801;BME280;53703;50.326;19.122;2023-05-23T09:03:37;98256.13;;;18.76;51.17
66801;BME280;53703;50.326;19.122;2023-05-23T09:06:31;98254.52;;;18.81;50.90
66801;BME280;53703;50.326;19.122;2023-05-23T09:09:26;98250.51;;;18.78;51.02
66801;BME280;53703;50.326;19.122;2023-05-23T09:12:20;98250.30;;;18.80;50.91
66801;BME280;53703;50.326;19.122;2023-05-23T09:15:16;98250.41;;;18.86;50.66
66801;BME280;53703;50.326;19.122;2023-05-23T09:18:10;98253.86;;;18.89;50.74
66801;BME280;53703;50.326;19.122;2023-05-23T09:21:06;98251.89;;;18.88;51.16
66801;BME280;53703;50.326;19.122;2023-05-23T09:24:00;98247.10;;;18.91;50.57
66801;BME280;53703;50.326;19.122;2023-05-23T09:26:54;98249.32;;;18.87;50.55
66801;BME280;53703;50.326;19.122;2023-05-23T09:29:49;98247.84;;;18.88;50.47
66801;BME280;53703;50.326;19.122;2023-05-23T09:32:54;98248.83;;;18.90;50.29
66801;BME280;53703;50.326;19.122;2023-05-23T09:35:57;98244.39;;;18.90;50.04
66801;BME280;53703;50.326;19.122;2023-05-23T09:38:51;98244.86;;;18.89;50.31
66801;BME280;53703;50.326;19.122;2023-05-23T09:41:48;98242.60;;;18.91;50.74
66801;BME280;53703;50.326;19.122;2023-05-23T09:44:44;98243.06;;;18.90;50.30
66801;BME280;53703;50.326;19.122;2023-05-23T09:47:38;98240.50;;;18.88;50.20
66801;BME280;53703;50.326;19.122;2023-05-23T09:50:36;98234.98;;;18.90;49.89
66801;BME280;53703;50.326;19.122;2023-05-23T09:53:30;98235.65;;;18.92;49.64
66801;BME280;53703;50.326;19.122;2023-05-23T09:56:25;98235.73;;;18.91;49.76
66801;BME280;53703;50.326;19.122;2023-05-23T09:59:21;98233.51;;;18.91;49.67
66801;BME280;53703;50.326;19.122;2023-05-23T10:02:17;98232.61;;;18.92;49.48
66801;BME280;53703;50.326;19.122;2023-05-23T10:05:02;98230.77;;;18.92;49.23
66801;BME280;53703;50.326;19.122;2023-05-23T10:08:00;98229.75;;;18.92;49.09
66801;BME280;53703;50.326;19.122;2023-05-23T10:15:06;98225.77;;;18.95;48.62
66801;BME280;53703;50.326;19.122;2023-05-23T10:18:11;98222.98;;;18.94;49.01
66801;BME280;53703;50.326;19.122;2023-05-23T10:21:13;98221.39;;;18.93;48.80
66801;BME280;53703;50.326;19.122;2023-05-23T10:24:12;98220.73;;;18.92;48.86
66801;BME280;53703;50.326;19.122;2023-05-23T10:27:07;98215.58;;;18.95;48.69
66801;BME280;53703;50.326;19.122;2023-05-23T10:30:02;98216.28;;;18.95;48.51
66801;BME280;53703;50.326;19.122;2023-05-23T10:32:57;98214.22;;;18.90;49.09
66801;BME280;53703;50.326;19.122;2023-05-23T10:35:58;98208.42;;;18.83;49.25
66801;BME280;53703;50.326;19.122;2023-05-23T10:39:24;98211.01;;;18.82;48.62
66801;BME280;53703;50.326;19.122;2023-05-23T10:42:30;98204.77;;;18.91;48.26
66801;BME280;53703;50.326;19.122;2023-05-23T10:45:26;98200.05;;;18.88;48.26
66801;BME280;53703;50.326;19.122;2023-05-23T10:48:33;98195.66;;;18.91;48.03
66801;BME280;53703;50.326;19.122;2023-05-23T10:51:50;98198.67;;;18.91;48.06
66801;BME280;53703;50.326;19.122;2023-05-23T10:54:51;98194.55;;;18.91;47.97
66801;BME280;53703;50.326;19.122;2023-05-23T10:57:45;98194.83;;;19.08;47.66
66801;BME280;53703;50.326;19.122;2023-05-23T11:00:51;98190.97;;;19.01;47.79
66801;BME280;53703;50.326;19.122;2023-05-23T11:03:51;98189.64;;;18.98;48.35
66801;BME280;53703;50.326;19.122;2023-05-23T11:06:47;98186.49;;;18.99;47.91
66801;BME280;53703;50.326;19.122;2023-05-23T11:10:09;98191.48;;;19.03;47.74
66801;BME280;53703;50.326;19.122;2023-05-23T11:13:09;98186.84;;;19.01;47.94
66801;BME280;53703;50.326;19.122;2023-05-23T11:16:26;98187.64;;;19.01;47.90
66801;BME280;53703;50.326;19.122;2023-05-23T11:19:28;98181.55;;;18.96;48.19
66801;BME280;53703;50.326;19.122;2023-05-23T11:22:23;98178.30;;;18.96;48.14
66801;BME280;53703;50.326;19.122;2023-05-23T11:25:18;98175.80;;;18.98;47.92
66801;BME280;53703;50.326;19.122;2023-05-23T11:28:12;98169.70;;;19.01;48.10
66801;BME280;53703;50.326;19.122;2023-05-23T11:31:07;98166.67;;;18.99;48.31
66801;BME280;53703;50.326;19.122;2023-05-23T11:34:02;98163.38;;;19.04;48.52
66801;BME280;53703;50.326;19.122;2023-05-23T11:36:56;98163.85;;;19.04;48.36
66801;BME280;53703;50.326;19.122;2023-05-23T11:39:50;98159.94;;;19.05;49.40
66801;BME280;53703;50.326;19.122;2023-05-23T11:42:45;98155.17;;;19.14;49.14
66801;BME280;53703;50.326;19.122;2023-05-23T11:45:40;98154.34;;;19.11;49.27
66801;BME280;53703;50.326;19.122;2023-05-23T11:48:34;98145.48;;;19.05;49.77
66801;BME280;53703;50.326;19.122;2023-05-23T11:51:29;98146.44;;;19.12;49.81
66801;BME280;53703;50.326;19.122;2023-05-23T11:54:25;98149.81;;;19.15;49.57
66801;BME280;53703;50.326;19.122;2023-05-23T11:57:19;98148.22;;;19.13;50.19
66801;BME280;53703;50.326;19.122;2023-05-23T12:00:16;98151.56;;;19.20;49.74
66801;BME280;53703;50.326;19.122;2023-05-23T12:03:10;98149.33;;;19.13;49.21
66801;BME280;53703;50.326;19.122;2023-05-23T12:06:05;98146.16;;;19.19;49.51
66801;BME280;53703;50.326;19.122;2023-05-23T12:09:01;98148.77;;;19.19;49.63
66801;BME280;53703;50.326;19.122;2023-05-23T12:11:55;98145.28;;;19.18;50.08
66801;BME280;53703;50.326;19.122;2023-05-23T12:14:49;98147.30;;;19.26;50.21
66801;BME280;53703;50.326;19.122;2023-05-23T12:17:45;98149.83;;;19.20;50.16
66801;BME280;53703;50.326;19.122;2023-05-23T12:20:41;98150.47;;;19.16;49.91
66801;BME280;53703;50.326;19.122;2023-05-23T12:23:35;98147.11;;;19.14;51.06
66801;BME280;53703;50.326;19.122;2023-05-23T12:26:29;98146.30;;;19.12;50.75
66801;BME280;53703;50.326;19.122;2023-05-23T12:29:30;98143.02;;;19.20;50.79
66801;BME280;53703;50.326;19.122;2023-05-23T12:32:27;98143.96;;;19.19;50.94
66801;BME280;53703;50.326;19.122;2023-05-23T12:35:24;98141.62;;;19.21;49.93
66801;BME280;53703;50.326;19.122;2023-05-23T12:38:19;98148.42;;;19.21;51.23
66801;BME280;53703;50.326;19.122;2023-05-23T12:41:18;98159.02;;;19.22;51.14
66801;BME280;53703;50.326;19.122;2023-05-23T12:44:17;98183.35;;;19.30;51.89
66801;BME280;53703;50.326;19.122;2023-05-23T12:47:11;98199.03;;;19.42;51.65
66801;BME280;53703;50.326;19.122;2023-05-23T12:50:06;98206.48;;;19.25;51.49
66801;BME280;53703;50.326;19.122;2023-05-23T12:53:00;98217.83;;;19.22;51.85
66801;BME280;53703;50.326;19.122;2023-05-23T12:55:57;98226.39;;;19.24;52.19
66801;BME280;53703;50.326;19.122;2023-05-23T12:58:52;98230.74;;;19.24;52.81
66801;BME280;53703;50.326;19.122;2023-05-23T13:01:46;98226.95;;;19.25;52.85
66801;BME280;53703;50.326;19.122;2023-05-23T13:04:41;98237.05;;;19.19;53.52
66801;BME280;53703;50.326;19.122;2023-05-23T13:07:34;98244.44;;;19.26;53.75
66801;BME280;53703;50.326;19.122;2023-05-23T13:10:29;98243.70;;;19.28;54.49
66801;BME280;53703;50.326;19.122;2023-05-23T13:13:23;98242.52;;;19.34;54.82
66801;BME280;53703;50.326;19.122;2023-05-23T13:16:18;98235.86;;;19.32;54.48
66801;BME280;53703;50.326;19.122;2023-05-23T13:19:12;98234.78;;;19.29;55.62
66801;BME280;53703;50.326;19.122;2023-05-23T13:22:06;98235.63;;;19.42;58.32
66801;BME280;53703;50.326;19.122;2023-05-23T13:25:01;98223.98;;;19.31;56.96
66801;BME280;53703;50.326;19.122;2023-05-23T13:27:56;98216.09;;;19.31;56.13
66801;BME280;53703;50.326;19.122;2023-05-23T13:30:50;98213.69;;;19.29;56.72
66801;BME280;53703;50.326;19.122;2023-05-23T13:33:44;98214.36;;;19.27;56.06
66801;BME280;53703;50.326;19.122;2023-05-23T13:36:38;98215.98;;;19.26;56.64
66801;BME280;53703;50.326;19.122;2023-05-23T13:39:32;98212.95;;;19.28;56.65
66801;BME280;53703;50.326;19.122;2023-05-23T13:42:25;98210.73;;;19.28;56.04
66801;BME280;53703;50.326;19.122;2023-05-23T13:45:19;98212.28;;;19.26;56.57
66801;BME280;53703;50.326;19.122;2023-05-23T13:48:15;98213.58;;;19.27;56.34
66801;BME280;53703;50.326;19.122;2023-05-23T13:51:09;98212.41;;;19.24;56.67
66801;BME280;53703;50.326;19.122;2023-05-23T13:54:03;98208.32;;;19.25;56.32
66801;BME280;53703;50.326;19.122;2023-05-23T13:56:58;98207.09;;;19.27;56.27
66801;BME280;53703;50.326;19.122;2023-05-23T13:59:53;98211.14;;;19.24;57.01
66801;BME280;53703;50.326;19.122;2023-05-23T14:02:46;98211.45;;;19.23;59.30
66801;BME280;53703;50.326;19.122;2023-05-23T14:05:41;98206.45;;;19.26;57.95
66801;BME280;53703;50.326;19.122;2023-05-23T14:08:35;98204.61;;;19.25;58.62
66801;BME280;53703;50.326;19.122;2023-05-23T14:11:29;98211.23;;;19.25;58.46
66801;BME280;53703;50.326;19.122;2023-05-23T14:14:23;98209.34;;;19.25;59.10
66801;BME280;53703;50.326;19.122;2023-05-23T14:17:19;98209.30;;;19.27;58.12
66801;BME280;53703;50.326;19.122;2023-05-23T14:20:14;98206.85;;;19.27;58.49
66801;BME280;53703;50.326;19.122;2023-05-23T14:23:08;98202.69;;;19.29;58.63
66801;BME280;53703;50.326;19.122;2023-05-23T14:26:02;98205.90;;;19.27;58.05
66801;BME280;53703;50.326;19.122;2023-05-23T14:28:56;98199.90;;;19.23;59.74
66801;BME280;53703;50.326;19.122;2023-05-23T14:31:50;98197.35;;;19.17;60.79
66801;BME280;53703;50.326;19.122;2023-05-23T14:34:44;98199.16;;;19.18;62.58
66801;BME280;53703;50.326;19.122;2023-05-23T14:37:38;98188.74;;;19.22;61.36
66801;BME280;53703;50.326;19.122;2023-05-23T14:40:32;98186.36;;;19.21;60.91
66801;BME280;53703;50.326;19.122;2023-05-23T14:43:26;98186.39;;;19.23;59.98
66801;BME280;53703;50.326;19.122;2023-05-23T14:46:20;98187.75;;;19.24;59.76
66801;BME280;53703;50.326;19.122;2023-05-23T14:49:14;98186.05;;;19.26;59.42
66801;BME280;53703;50.326;19.122;2023-05-23T14:52:09;98189.61;;;19.22;58.87
66801;BME280;53703;50.326;19.122;2023-05-23T14:55:04;98197.33;;;19.20;59.62
66801;BME280;53703;50.326;19.122;2023-05-23T14:57:58;98203.09;;;19.20;60.86
66801;BME280;53703;50.326;19.122;2023-05-23T15:00:53;98212.30;;;19.22;59.16
66801;BME280;53703;50.326;19.122;2023-05-23T15:03:47;98217.75;;;19.22;59.70
66801;BME280;53703;50.326;19.122;2023-05-23T15:06:41;98220.29;;;19.23;58.88
66801;BME280;53703;50.326;19.122;2023-05-23T15:09:35;98219.97;;;19.27;59.30
66801;BME280;53703;50.326;19.122;2023-05-23T15:12:30;98220.44;;;19.22;59.77
66801;BME280;53703;50.326;19.122;2023-05-23T15:15:38;98218.34;;;19.21;62.69
66801;BME280;53703;50.326;19.122;2023-05-23T15:18:32;98216.69;;;19.21;62.08
66801;BME280;53703;50.326;19.122;2023-05-23T15:21:33;98214.95;;;19.25;61.00
66801;BME280;53703;50.326;19.122;2023-05-23T15:24:27;98208.02;;;19.26;60.60
66801;BME280;53703;50.326;19.122;2023-05-23T15:27:21;98206.41;;;19.25;60.05